Time;durP1;ratioP1;P1;durP2;ratioP2;P2;SDS_P1;SDS_P2;PMS_P1;PMS_P2;Temp;Humidity;BMP_temperature;BMP_pressure;BME280_temperature;BME280_humidity;BME280_pressure;Samples;Min_cycle;Max_cycle;Signal;HPM_P1;HPM_P2
2022/05/27 00:01:58;;;;;;;4.97;1.23;;;;;;;15.37;73.18;101773.69;4948776;28;20031;-75
2022/05/27 00:04:24;;;;;;;3.78;1.10;;;;;;;15.30;73.03;101776.13;4964366;28;20051;-75
2022/05/27 00:06:49;;;;;;;5.72;1.52;;;;;;;15.37;73.02;101771.88;4964136;28;20097;-75
2022/05/27 00:09:14;;;;;;;3.00;1.52;;;;;;;15.33;73.48;101770.59;4966582;28;20035;-75
2022/05/27 00:11:40;;;;;;;4.28;1.48;;;;;;;15.31;73.82;101767.31;4959582;28;20094;-75
2022/05/27 00:14:05;;;;;;;4.88;1.25;;;;;;;15.28;73.45;101770.25;4941604;28;20022;-75
2022/05/27 00:16:31;;;;;;;2.78;1.40;;;;;;;15.36;73.46;101772.84;4966535;28;20029;-75
2022/05/27 00:18:58;;;;;;;3.53;1.50;;;;;;;15.34;73.20;101774.00;4960072;28;20475;-75
2022/05/27 00:21:25;;;;;;;4.45;1.70;;;;;;;15.31;73.65;101769.09;4965252;28;20092;-76
2022/05/27 00:23:51;;;;;;;5.20;1.80;;;;;;;15.21;73.93;101760.63;4959386;28;20588;-76
2022/05/27 00:26:16;;;;;;;2.97;1.65;;;;;;;15.17;73.95;101760.94;4953934;28;20066;-76
2022/05/27 00:28:42;;;;;;;3.95;1.73;;;;;;;15.15;73.90;101770.72;4948353;28;20031;-75
2022/05/27 00:31:08;;;;;;;3.20;1.63;;;;;;;15.15;74.00;101768.13;4962520;28;20107;-75
2022/05/27 00:33:36;;;;;;;8.23;2.45;;;;;;;15.18;74.00;101754.75;4960734;28;20035;-76
2022/05/27 00:36:06;;;;;;;3.45;1.40;;;;;;;15.18;73.84;101757.34;4963981;28;20027;-75
2022/05/27 00:38:32;;;;;;;6.35;2.03;;;;;;;15.18;74.22;101756.53;4964336;28;20529;-75
2022/05/27 00:40:58;;;;;;;3.75;1.30;;;;;;;15.22;73.97;101746.56;4947197;28;20039;-76
2022/05/27 00:43:23;;;;;;;6.72;2.38;;;;;;;15.10;74.23;101764.34;4950242;28;20061;-75
2022/05/27 00:46:02;;;;;;;2.88;1.23;;;;;;;15.08;74.45;101759.28;4950937;28;20133;-76
2022/05/27 00:48:29;;;;;;;5.40;1.85;;;;;;;15.10;74.88;101764.34;4964975;28;20432;-75
2022/05/27 00:50:56;;;;;;;7.82;2.03;;;;;;;15.03;75.76;101761.59;4963211;28;20035;-76
2022/05/27 00:53:51;;;;;;;8.60;1.65;;;;;;;15.08;76.63;101766.31;4960107;28;20142;-75
2022/05/27 00:56:20;;;;;;;4.82;2.35;;;;;;;14.97;77.69;101760.44;4942450;28;20531;-75
2022/05/27 00:58:54;;;;;;;3.13;1.63;;;;;;;14.93;77.95;101750.47;4959860;28;20043;-75
2022/05/27 01:01:19;;;;;;;5.13;2.33;;;;;;;14.79;77.85;101757.16;4960998;28;20031;-75
2022/05/27 01:03:46;;;;;;;6.25;2.10;;;;;;;14.86;78.21;101755.53;4959043;28;20096;-75
2022/05/27 01:06:12;;;;;;;2.97;1.73;;;;;;;14.88;78.42;101756.19;4960977;28;20031;-75
2022/05/27 01:08:37;;;;;;;5.53;1.42;;;;;;;14.89;78.43;101749.16;4959470;28;20031;-75
2022/05/27 01:11:21;;;;;;;4.68;1.83;;;;;;;14.77;78.37;101751.28;4943845;28;20539;-75
2022/05/27 01:14:08;;;;;;;5.43;1.55;;;;;;;14.91;77.07;101752.44;4959451;28;20065;-75
2022/05/27 01:16:50;;;;;;;6.63;1.60;;;;;;;14.80;77.62;101737.88;4962225;28;20049;-75
2022/05/27 01:22:22;;;;;;;4.35;1.60;;;;;;;14.70;77.47;101737.22;4959175;28;20433;-76
2022/05/27 01:25:22;;;;;;;9.63;2.10;;;;;;;14.79;76.90;101737.06;4961413;28;20039;-75
2022/05/27 01:28:21;;;;;;;4.47;1.38;;;;;;;14.83;76.76;101744.59;4900866;29;21020;-76
2022/05/27 01:31:07;;;;;;;5.88;1.77;;;;;;;14.78;76.89;101743.25;4961593;28;20138;-76
2022/05/27 01:33:51;;;;;;;8.23;2.63;;;;;;;14.77;76.77;101744.25;4960300;28;20663;-76
2022/05/27 01:36:37;;;;;;;3.05;1.40;;;;;;;14.77;76.44;101738.22;4964235;28;20038;-75
2022/05/27 01:39:06;;;;;;;3.67;1.50;;;;;;;14.77;76.48;101727.78;4953187;28;20491;-75
2022/05/27 01:41:42;;;;;;;6.50;1.58;;;;;;;14.76;76.30;101729.56;4961850;28;20092;-76
2022/05/27 01:44:14;;;;;;;7.18;1.67;;;;;;;14.74;76.04;101734.13;4961310;28;20125;-75
2022/05/27 01:46:47;;;;;;;6.65;1.75;;;;;;;14.78;76.05;101724.97;4962640;28;20484;-75
2022/05/27 01:49:33;;;;;;;;;;;;;;;14.76;76.19;101731.34;4946858;28;20405;-75
2022/05/27 01:52:08;;;;;;;4.88;1.40;;;;;;;14.74;76.16;101734.13;4947450;28;19929;-76
2022/05/27 01:54:49;;;;;;;9.35;1.83;;;;;;;14.71;76.53;101729.25;4959852;28;20050;-75
2022/05/27 01:57:20;;;;;;;8.57;2.22;;;;;;;14.73;76.92;101727.28;4962061;28;20466;-75
2022/05/27 02:00:04;;;;;;;5.30;1.83;;;;;;;14.67;77.07;101729.69;4942601;28;20061;-74
2022/05/27 02:02:34;;;;;;;5.45;1.55;;;;;;;14.71;77.00;101733.63;4962534;28;20042;-75
2022/05/27 02:05:07;;;;;;;6.20;1.83;;;;;;;14.64;77.55;101727.44;4958662;28;20035;-75
2022/05/27 02:07:45;;;;;;;4.57;1.30;;;;;;;14.70;78.35;101732.00;4948019;28;20058;-76
2022/05/27 02:10:18;;;;;;;6.80;1.58;;;;;;;14.70;78.28;101724.97;4955120;28;20526;-75
2022/05/27 02:12:50;;;;;;;5.53;1.77;;;;;;;14.67;78.51;101717.47;4960282;28;20030;-76
2022/05/27 02:15:20;;;;;;;7.20;1.90;;;;;;;14.57;78.58;101716.81;4944710;28;20412;-75
2022/05/27 02:17:54;;;;;;;3.17;1.40;;;;;;;14.55;79.54;101719.53;4957336;28;20058;-75
2022/05/27 02:20:28;;;;;;;6.05;1.70;;;;;;;14.40;79.52;101711.50;4961631;28;20034;-75
2022/05/27 02:23:01;;;;;;;6.68;2.60;;;;;;;14.45;79.57;101710.19;4958479;28;20129;-76
2022/05/27 02:25:33;;;;;;;5.97;1.75;;;;;;;14.56;78.92;101709.91;4962622;28;20035;-75
2022/05/27 02:28:09;;;;;;;6.68;1.77;;;;;;;14.52;78.56;101712.03;4944297;28;20065;-75
2022/05/27 02:30:36;;;;;;;5.93;2.13;;;;;;;14.43;79.30;101714.78;4960245;28;20069;-75
2022/05/27 02:35:58;;;;;;;6.00;1.67;;;;;;;14.37;80.44;101714.44;4961897;28;20037;-75
2022/05/27 02:38:26;;;;;;;5.45;1.80;;;;;;;14.42;80.45;101719.19;4963226;28;20035;-75
2022/05/27 02:40:59;;;;;;;6.35;1.40;;;;;;;14.39;80.97;101719.47;4960716;28;20502;-75
2022/05/27 02:43:51;;;;;;;10.30;2.22;;;;;;;14.56;80.67;101725.56;4945895;28;20583;-75
2022/05/27 02:46:31;;;;;;;6.65;2.22;;;;;;;14.48;82.11;101717.72;4960814;28;20045;-75
2022/05/27 02:49:05;;;;;;;8.13;1.80;;;;;;;14.39;83.33;101722.94;4943147;28;20089;-76
2022/05/27 02:51:57;;;;;;;5.03;1.50;;;;;;;14.27;85.08;101725.97;4956174;28;20138;-75
2022/05/27 02:54:43;;;;;;;5.72;2.42;;;;;;;14.26;86.11;101732.16;4943755;28;20416;-76
2022/05/27 02:57:30;;;;;;;9.05;2.42;;;;;;;14.10;87.08;101727.72;4956451;28;20023;-76
2022/05/27 02:59:57;;;;;;;9.38;2.60;;;;;;;14.02;87.98;101723.28;4962477;28;20582;-76
2022/05/27 03:02:22;;;;;;;6.57;2.08;;;;;;;14.02;88.78;101723.28;4959910;28;20034;-75
2022/05/27 03:04:55;;;;;;;2.95;1.73;;;;;;;14.02;89.26;101718.06;4949343;28;20404;-76
2022/05/27 03:07:56;;;;;;;7.60;2.47;;;;;;;13.96;90.13;101719.50;4958920;28;20035;-75
2022/05/27 03:10:30;;;;;;;7.68;2.10;;;;;;;13.91;90.71;101715.72;4963667;28;20070;-76
2022/05/27 03:13:44;;;;;;;5.53;2.30;;;;;;;13.90;91.06;101709.69;4968173;28;20042;-76
2022/05/27 03:16:36;;;;;;;6.63;2.17;;;;;;;13.86;91.92;101712.75;4903503;29;20039;-78
2022/05/27 03:19:30;;;;;;;6.55;2.25;;;;;;;13.82;92.26;101712.25;4960644;28;20622;-76
2022/05/27 03:22:20;;;;;;;5.95;2.65;;;;;;;13.85;91.51;101711.16;4964285;28;20038;-76
2022/05/27 03:25:03;;;;;;;5.38;2.20;;;;;;;13.85;92.51;101713.75;4961413;28;20185;-77
2022/05/27 03:27:42;;;;;;;8.65;2.67;;;;;;;13.79;92.68;101717.78;4962605;28;20106;-76
2022/05/27 03:30:18;;;;;;;10.82;3.08;;;;;;;13.59;94.10;101720.59;4947317;28;20045;-76
2022/05/27 03:33:05;;;;;;;6.00;2.05;;;;;;;13.65;94.28;101718.34;4963602;28;20041;-76
2022/05/27 03:35:50;;;;;;;10.57;3.22;;;;;;;13.66;94.64;101720.81;4959126;28;20404;-76
2022/05/27 03:38:33;;;;;;;7.18;3.40;;;;;;;13.64;95.10;101722.75;4961186;28;20031;-76
2022/05/27 03:41:04;;;;;;;8.85;3.13;;;;;;;13.65;95.26;101715.75;4946558;28;20038;-76
2022/05/27 03:43:33;;;;;;;6.20;2.60;;;;;;;13.65;95.30;101713.94;4947959;28;20130;-75
2022/05/27 03:46:00;;;;;;;5.05;3.10;;;;;;;13.61;95.68;101720.44;4966555;28;20026;-76
2022/05/27 03:48:29;;;;;;;7.57;2.92;;;;;;;13.64;95.48;101717.53;4966678;28;20085;-76
2022/05/27 03:51:00;;;;;;;9.43;3.00;;;;;;;13.56;95.99;101720.06;4961817;28;20083;-76
2022/05/27 03:54:03;;;;;;;6.95;3.20;;;;;;;13.57;96.57;101716.50;4963392;28;20043;-76
2022/05/27 03:56:11;;;;;;;5.78;3.20;;;;;;;13.51;96.98;101720.56;4969526;28;20400;-76
2022/05/27 03:58:36;;;;;;;6.38;3.45;;;;;;;13.59;97.14;101715.38;4961322;28;20038;-76
2022/05/27 04:01:02;;;;;;;7.63;3.33;;;;;;;13.52;96.78;101719.56;4966546;28;20223;-75
2022/05/27 04:03:27;;;;;;;8.95;3.70;;;;;;;13.42;97.11;101717.06;4962939;28;20050;-76
2022/05/27 04:05:53;;;;;;;4.35;3.05;;;;;;;13.50;97.36;101711.09;4950910;28;20034;-76
2022/05/27 04:08:18;;;;;;;11.00;4.25;;;;;;;13.47;97.23;101719.22;4966411;28;20035;-76
2022/05/27 04:10:44;;;;;;;6.78;3.90;;;;;;;13.27;98.43;101726.38;4956402;28;20042;-76
2022/05/27 04:13:09;;;;;;;8.18;4.38;;;;;;;13.34;98.85;101730.03;4967771;28;20315;-76
2022/05/27 04:15:34;;;;;;;7.22;3.65;;;;;;;13.37;98.62;101724.53;4951497;28;20027;-76
2022/05/27 04:18:00;;;;;;;6.35;3.60;;;;;;;13.37;99.26;101732.34;4968146;28;20033;-76
2022/05/27 04:20:25;;;;;;;7.07;4.00;;;;;;;13.43;99.38;101739.56;4965551;28;20061;-76
2022/05/27 04:22:54;;;;;;;10.85;3.53;;;;;;;13.42;99.39;101744.91;4966151;28;20035;-76
2022/05/27 04:25:20;;;;;;;9.35;3.67;;;;;;;13.41;99.79;101751.91;4965127;28;20059;-76
2022/05/27 04:27:45;;;;;;;6.50;3.40;;;;;;;13.43;100.00;101752.56;4951624;28;20093;-76
2022/05/27 04:30:12;;;;;;;7.32;3.50;;;;;;;13.46;99.88;101753.25;4967694;28;20038;-76
2022/05/27 04:32:38;;;;;;;7.22;3.60;;;;;;;13.43;99.60;101744.75;4949735;28;20058;-77
2022/05/27 04:35:05;;;;;;;6.00;3.33;;;;;;;13.47;99.97;101752.25;4960684;28;20034;-77
2022/05/27 04:37:30;;;;;;;5.75;3.85;;;;;;;13.49;99.88;101750.34;4965619;28;20034;-77
2022/05/27 04:39:56;;;;;;;6.05;3.28;;;;;;;13.48;99.13;101743.47;4943162;28;20105;-76
2022/05/27 04:42:21;;;;;;;5.97;2.70;;;;;;;13.48;99.73;101744.28;4958574;28;20031;-76
2022/05/27 04:44:47;;;;;;;4.82;3.30;;;;;;;13.46;99.17;101741.03;4960984;28;20050;-76
2022/05/27 04:47:12;;;;;;;2.78;2.15;;;;;;;13.51;98.50;101744.00;4949628;28;20031;-77
2022/05/27 04:49:54;;;;;;;3.97;2.28;;;;;;;13.52;98.40;101747.41;4965785;28;20538;-77
2022/05/27 04:52:24;;;;;;;7.00;2.10;;;;;;;13.47;98.16;101739.22;4946926;28;20130;-76
2022/05/27 04:54:50;;;;;;;3.58;1.67;;;;;;;13.42;98.15;101743.09;4949284;28;20480;-76
2022/05/27 04:57:19;;;;;;;3.63;1.60;;;;;;;13.40;98.53;101745.06;4951258;28;20484;-76
2022/05/27 04:59:46;;;;;;;5.25;1.60;;;;;;;13.44;98.76;101743.78;4949841;28;20081;-77
2022/05/27 05:02:13;;;;;;;3.97;1.45;;;;;;;13.48;98.80;101746.09;4945560;28;20038;-76
2022/05/27 05:04:39;;;;;;;5.00;2.10;;;;;;;13.46;98.16;101746.22;4963501;28;20034;-76
2022/05/27 05:07:08;;;;;;;3.78;1.83;;;;;;;13.42;97.74;101750.94;4963831;28;20066;-76
2022/05/27 05:09:38;;;;;;;2.22;1.40;;;;;;;13.41;98.28;101746.69;4950607;28;21059;-76
2022/05/27 05:12:05;;;;;;;2.58;1.48;;;;;;;13.39;98.53;101759.06;4946049;28;20359;-76
2022/05/27 05:14:30;;;;;;;2.35;1.63;;;;;;;13.37;99.02;101760.16;4964352;28;20040;-76
2022/05/27 05:16:56;;;;;;;3.45;1.88;;;;;;;13.38;99.29;101773.03;4968348;28;20509;-77
2022/05/27 05:19:21;;;;;;;5.57;1.92;;;;;;;13.38;99.76;101767.84;4962199;28;20122;-77
2022/05/27 05:21:47;;;;;;;4.47;1.90;;;;;;;13.41;100.00;101770.16;4962555;28;20038;-76
2022/05/27 05:24:13;;;;;;;3.67;1.85;;;;;;;13.44;99.57;101769.81;4967096;28;20093;-76
2022/05/27 05:26:38;;;;;;;3.45;1.77;;;;;;;13.37;99.31;101770.59;4949635;28;20034;-77
2022/05/27 05:29:06;;;;;;;5.97;1.60;;;;;;;13.38;98.89;101765.22;4945906;28;20043;-77
2022/05/27 05:31:32;;;;;;;7.45;1.30;;;;;;;13.46;97.61;101767.06;4964917;28;20070;-77
2022/05/27 05:33:59;;;;;;;3.00;1.50;;;;;;;13.37;97.44;101765.38;4948390;28;20073;-76
2022/05/27 05:36:29;;;;;;;3.47;1.45;;;;;;;13.34;97.85;101771.72;4963324;28;20531;-77
2022/05/27 05:38:56;;;;;;;3.72;1.30;;;;;;;13.27;97.73;101778.44;4942603;28;20117;-77
2022/05/27 05:41:26;;;;;;;4.25;1.48;;;;;;;13.32;97.70;101771.03;4945737;28;20162;-76
2022/05/27 05:43:52;;;;;;;3.22;1.50;;;;;;;13.36;98.17;101774.97;4961766;28;20031;-77
2022/05/27 05:46:17;;;;;;;4.80;1.40;;;;;;;13.31;98.77;101779.81;4957549;28;20054;-77
2022/05/27 05:48:43;;;;;;;1.75;1.38;;;;;;;13.30;98.79;101774.72;4961274;28;20480;-76
2022/05/27 05:51:08;;;;;;;3.95;1.50;;;;;;;13.37;98.76;101779.25;4945096;28;20070;-76
2022/05/27 05:53:34;;;;;;;5.88;1.55;;;;;;;13.35;97.83;101775.94;4960730;28;20038;-76
2022/05/27 05:55:59;;;;;;;4.20;1.50;;;;;;;13.33;98.55;101777.88;4949669;28;20042;-76
2022/05/27 05:58:25;;;;;;;1.58;1.25;;;;;;;13.34;98.76;101776.91;4945572;28;20057;-76
2022/05/27 06:00:50;;;;;;;2.47;1.40;;;;;;;13.40;99.18;101778.91;4933424;28;20031;-76
2022/05/27 06:03:16;;;;;;;3.67;1.88;;;;;;;13.46;98.84;101781.91;4964464;28;20046;-76
2022/05/27 06:05:42;;;;;;;4.07;1.55;;;;;;;13.46;98.81;101779.28;4959291;28;20744;-77
2022/05/27 06:08:08;;;;;;;6.82;1.45;;;;;;;13.49;98.67;101781.59;4932838;28;20043;-76
2022/05/27 06:10:34;;;;;;;3.53;1.60;;;;;;;13.50;98.76;101785.84;4941912;28;20042;-77
2022/05/27 06:13:00;;;;;;;4.68;1.60;;;;;;;13.51;98.70;101785.69;4955463;28;20503;-77
2022/05/27 06:15:26;;;;;;;8.93;2.00;;;;;;;13.54;99.10;101779.34;4960259;28;20639;-77
2022/05/27 06:17:51;;;;;;;3.20;1.20;;;;;;;13.57;98.97;101784.25;4960896;28;20037;-76
2022/05/27 06:20:17;;;;;;;5.50;1.65;;;;;;;13.61;98.72;101789.00;4948720;28;20365;-77
2022/05/27 06:22:43;;;;;;;4.65;1.60;;;;;;;13.68;98.26;101801.44;4948084;28;20619;-77
2022/05/27 06:25:09;;;;;;;6.70;1.73;;;;;;;13.67;98.15;101800.59;4960239;28;20042;-77
2022/05/27 06:27:34;;;;;;;4.63;1.52;;;;;;;13.66;98.37;101801.59;4963771;28;20039;-77
2022/05/27 06:35:28;;;;;;;7.60;2.00;;;;;;;13.47;98.20;101792.16;4943464;28;20107;-76
2022/05/27 06:37:54;;;;;;;6.40;1.77;;;;;;;13.49;98.28;101794.63;4950647;28;20035;-76
2022/05/27 06:40:19;;;;;;;4.10;1.90;;;;;;;13.51;98.63;101792.69;4951397;28;20038;-78
2022/05/27 06:42:45;;;;;;;6.20;1.67;;;;;;;13.58;98.24;101798.91;4970163;28;20511;-77
2022/05/27 06:45:13;;;;;;;7.03;2.65;;;;;;;13.62;98.25;101795.88;4969974;28;20037;-76
2022/05/27 06:47:39;;;;;;;5.43;2.10;;;;;;;13.61;98.15;101801.22;4955650;28;20030;-77
2022/05/27 06:50:07;;;;;;;3.33;1.85;;;;;;;13.65;98.27;101802.56;4964133;28;20034;-77
2022/05/27 06:52:33;;;;;;;10.02;3.88;;;;;;;13.77;98.15;101798.75;4967503;28;20039;-78
2022/05/27 06:54:58;;;;;;;3.75;1.73;;;;;;;13.85;97.29;101799.78;4971315;28;20034;-76
2022/05/27 06:57:24;;;;;;;4.93;1.83;;;;;;;13.88;97.56;101797.69;4949747;28;20038;-76
2022/05/27 06:59:49;;;;;;;6.80;2.65;;;;;;;13.95;97.81;101801.28;4963431;28;20035;-78
2022/05/27 07:02:15;;;;;;;5.43;1.92;;;;;;;14.07;97.54;101799.25;4949637;28;20034;-77
2022/05/27 07:04:41;;;;;;;5.50;2.38;;;;;;;14.18;96.85;101801.59;4968757;28;20113;-77
2022/05/27 07:07:06;;;;;;;8.80;2.47;;;;;;;14.29;96.06;101800.50;4964117;28;20019;-77
2022/05/27 07:09:35;;;;;;;4.82;2.17;;;;;;;14.37;95.78;101794.50;4970650;28;20043;-77
2022/05/27 07:12:04;;;;;;;6.75;2.55;;;;;;;14.72;96.21;101803.13;4953505;28;20039;-77
2022/05/27 07:14:30;;;;;;;8.70;2.80;;;;;;;15.36;94.04;101801.59;4968273;28;20031;-77
2022/05/27 07:16:55;;;;;;;8.50;2.50;;;;;;;15.73;92.29;101781.16;4957029;28;20691;-77
2022/05/27 07:19:21;;;;;;;8.10;3.10;;;;;;;16.35;89.25;101785.75;4962003;28;20094;-77
2022/05/27 07:21:48;;;;;;;5.63;2.58;;;;;;;17.13;86.24;101782.19;4959564;28;20089;-77
2022/05/27 07:24:16;;;;;;;7.25;2.55;;;;;;;17.69;82.98;101786.31;4966629;28;20535;-77
2022/05/27 07:26:43;;;;;;;5.32;3.25;;;;;;;18.00;80.98;101780.13;4963219;28;20118;-77
2022/05/27 07:29:11;;;;;;;7.28;2.92;;;;;;;18.25;78.30;101785.88;4963170;28;20043;-77
2022/05/27 07:31:39;;;;;;;6.05;2.90;;;;;;;18.60;77.54;101783.47;4966671;28;20031;-77
2022/05/27 07:34:05;;;;;;;8.23;2.90;;;;;;;18.85;76.93;101781.34;4965373;28;20431;-77
2022/05/27 07:36:31;;;;;;;6.32;3.35;;;;;;;18.99;75.92;101782.31;4967512;28;20031;-77
2022/05/27 07:38:56;;;;;;;5.20;2.85;;;;;;;18.75;76.36;101773.75;4948810;28;20066;-77
2022/05/27 07:41:23;;;;;;;10.20;3.05;;;;;;;18.76;75.76;101780.63;4965730;28;20030;-76
2022/05/27 07:43:50;;;;;;;10.00;3.83;;;;;;;18.40;78.28;101781.44;4964865;28;20062;-77
2022/05/27 07:46:16;;;;;;;9.68;3.97;;;;;;;18.03;78.51;101780.56;4964992;28;21601;-76
2022/05/27 07:48:45;;;;;;;9.07;4.40;;;;;;;17.44;78.42;101791.81;4961199;28;20035;-77
2022/05/27 07:51:10;;;;;;;9.35;4.18;;;;;;;17.10;80.77;101793.06;4947165;28;20579;-77
2022/05/27 07:53:38;;;;;;;7.38;4.57;;;;;;;16.97;83.03;101795.44;4944265;28;20042;-76
2022/05/27 07:56:05;;;;;;;7.15;3.78;;;;;;;17.73;82.32;101792.84;4950950;28;20028;-77
2022/05/27 07:58:31;;;;;;;8.13;4.10;;;;;;;18.49;77.54;101788.19;4945894;28;20411;-76
2022/05/27 08:00:57;;;;;;;10.82;4.10;;;;;;;18.88;74.25;101791.50;4950180;28;20199;-77
2022/05/27 08:03:22;;;;;;;10.27;3.80;;;;;;;19.13;74.04;101791.09;4931264;28;20034;-77
2022/05/27 08:05:48;;;;;;;11.52;3.35;;;;;;;19.63;71.82;101790.09;4952230;28;20482;-77
2022/05/27 08:08:14;;;;;;;7.70;3.17;;;;;;;20.07;68.94;101788.16;4959281;28;20302;-77
2022/05/27 08:10:40;;;;;;;8.10;3.58;;;;;;;20.26;67.50;101788.44;4961172;28;20062;-77
2022/05/27 08:13:07;;;;;;;6.85;3.83;;;;;;;19.94;68.37;101788.88;4946843;28;20114;-77
2022/05/27 08:15:33;;;;;;;10.93;3.85;;;;;;;19.97;66.29;101790.34;4948139;28;20913;-77
2022/05/27 08:17:58;;;;;;;7.88;3.50;;;;;;;20.44;66.09;101778.19;4950518;28;20089;-77
2022/05/27 08:20:27;;;;;;;7.53;2.83;;;;;;;20.73;65.29;101782.31;4962564;28;20043;-77
2022/05/27 08:22:53;;;;;;;9.65;2.65;;;;;;;20.68;64.53;101779.50;4947924;28;20411;-77
2022/05/27 08:25:21;;;;;;;10.50;2.78;;;;;;;20.87;62.36;101783.19;4948097;28;21307;-77
2022/05/27 08:27:46;;;;;;;7.88;3.00;;;;;;;20.95;61.66;101788.25;4963892;28;20035;-77
2022/05/27 08:30:15;;;;;;;9.85;3.17;;;;;;;21.16;61.72;101784.59;4946344;28;20026;-76
2022/05/27 08:32:40;;;;;;;7.38;3.13;;;;;;;21.27;60.19;101790.31;4960516;28;20594;-77
2022/05/27 08:38:10;;;;;;;7.05;2.10;;;;;;;20.65;61.87;101793.06;4964297;28;20031;-77
2022/05/27 08:41:14;;;;;;;9.82;2.50;;;;;;;20.00;64.12;101803.09;4963718;28;20035;-77
2022/05/27 08:44:17;;;;;;;7.03;2.15;;;;;;;19.70;65.82;101799.84;4963909;28;20077;-77
2022/05/27 08:46:45;;;;;;;8.10;2.15;;;;;;;19.52;63.18;101793.25;4970427;28;20596;-77
2022/05/27 08:49:17;;;;;;;5.97;1.95;;;;;;;19.36;63.42;101799.59;4953163;28;20105;-77
2022/05/27 08:52:11;;;;;;;7.90;2.30;;;;;;;19.93;61.61;101796.97;4968260;28;20041;-77
2022/05/27 08:54:45;;;;;;;11.30;2.40;;;;;;;19.70;60.49;101799.84;4959682;28;20054;-77
2022/05/27 09:00:07;;;;;;;9.88;2.67;;;;;;;19.49;59.17;101798.88;4964608;28;20058;-77
2022/05/27 09:02:42;;;;;;;7.15;2.50;;;;;;;19.32;60.45;101795.72;4967029;28;20205;-77
2022/05/27 09:05:25;;;;;;;7.72;2.08;;;;;;;20.16;59.50;101792.25;4962157;28;20027;-77
2022/05/27 09:07:55;;;;;;;10.18;2.55;;;;;;;20.05;60.27;101792.00;4950190;28;20043;-77
2022/05/27 09:10:45;;;;;;;10.30;3.13;;;;;;;19.69;61.17;101795.59;4957326;28;20103;-77
2022/05/27 09:13:13;;;;;;;9.15;2.08;;;;;;;19.74;60.47;101785.31;4962201;28;20038;-77
2022/05/27 09:15:48;;;;;;;8.73;2.15;;;;;;;20.48;58.23;101784.66;4966395;28;20081;-78
2022/05/27 09:18:27;;;;;;;11.55;3.20;;;;;;;20.92;56.11;101770.19;4966567;28;20031;-77
2022/05/27 09:21:03;;;;;;;9.85;2.13;;;;;;;21.50;56.62;101776.72;4947064;28;20134;-77
2022/05/27 09:23:51;;;;;;;9.25;2.00;;;;;;;21.64;54.23;101778.28;4946539;28;20042;-77
2022/05/27 09:26:25;;;;;;;8.43;2.13;;;;;;;21.62;54.96;101774.25;4946686;28;20258;-77
2022/05/27 09:29:06;;;;;;;5.43;2.65;;;;;;;21.14;55.64;101775.28;4961800;28;20041;-77
2022/05/27 09:31:47;;;;;;;10.90;2.72;;;;;;;21.36;54.71;101774.06;4964302;28;20038;-77
2022/05/27 09:34:13;;;;;;;8.15;2.53;;;;;;;21.70;55.15;101774.03;4947210;28;20743;-79
2022/05/27 09:36:44;;;;;;;9.50;2.13;;;;;;;21.90;54.58;101763.44;4945948;28;20034;-77
2022/05/27 09:39:12;;;;;;;7.88;2.30;;;;;;;21.25;55.79;101773.84;4974402;28;20078;-78
2022/05/27 09:41:57;;;;;;;7.13;1.92;;;;;;;21.04;55.30;101774.84;4970109;28;20089;-77
2022/05/27 09:44:50;;;;;;;13.15;2.42;;;;;;;21.08;56.57;101773.44;4949868;28;20033;-78
2022/05/27 09:47:17;;;;;;;7.05;1.77;;;;;;;21.43;54.70;101770.59;4948118;28;20644;-77
2022/05/27 09:49:46;;;;;;;11.95;2.63;;;;;;;20.95;54.68;101767.16;4957290;28;20046;-76
2022/05/27 09:52:11;;;;;;;8.00;2.10;;;;;;;20.43;56.01;101784.44;4960069;28;20039;-78
2022/05/27 09:54:40;;;;;;;7.55;2.05;;;;;;;20.05;56.29;101797.25;4949028;28;20038;-77
2022/05/27 09:57:11;;;;;;;7.47;2.08;;;;;;;19.87;56.57;101795.13;4963380;28;20162;-78
2022/05/27 09:59:40;;;;;;;10.38;2.10;;;;;;;19.59;57.27;101814.31;4961542;28;20039;-78
2022/05/27 10:02:22;;;;;;;11.38;2.30;;;;;;;19.19;59.17;101812.22;4951430;28;20085;-77
2022/05/27 10:04:51;;;;;;;7.60;2.50;;;;;;;19.04;57.61;101809.66;4956319;28;20081;-77
2022/05/27 10:07:30;;;;;;;11.27;2.60;;;;;;;18.66;58.44;101806.38;4948971;28;20573;-77
2022/05/27 10:09:57;;;;;;;12.23;2.50;;;;;;;18.71;58.53;101808.47;4961896;28;20041;-77
2022/05/27 10:12:32;;;;;;;8.75;2.08;;;;;;;18.83;58.65;101820.94;4953785;28;20042;-78
2022/05/27 10:14:57;;;;;;;12.70;2.53;;;;;;;18.87;59.55;101813.50;4950184;28;20082;-78
2022/05/27 10:17:36;;;;;;;13.20;2.42;;;;;;;18.99;58.81;101809.38;4950831;28;20030;-78
2022/05/27 10:20:29;;;;;;;10.02;2.40;;;;;;;19.40;57.22;101808.75;4965341;28;20042;-78
2022/05/27 10:23:10;;;;;;;9.13;2.70;;;;;;;20.08;55.76;101799.47;4964058;28;20499;-79
2022/05/27 10:25:41;;;;;;;10.43;2.72;;;;;;;20.29;54.75;101794.13;4949045;28;20504;-78
2022/05/27 10:28:09;;;;;;;13.32;2.65;;;;;;;20.63;56.62;101791.66;4947483;28;20388;-78
2022/05/27 10:30:37;;;;;;;11.20;2.88;;;;;;;21.02;55.18;101798.81;4967049;28;20026;-77
2022/05/27 10:33:39;;;;;;;7.68;2.13;;;;;;;21.10;53.37;101790.69;4966967;28;20053;-78
2022/05/27 10:36:21;;;;;;;15.18;2.88;;;;;;;21.27;54.12;101787.66;4951302;28;20075;-78
2022/05/27 10:38:57;;;;;;;12.90;2.55;;;;;;;21.64;53.32;101793.31;4958481;28;20472;-78
2022/05/27 10:41:30;;;;;;;10.85;2.22;;;;;;;21.78;54.95;101794.94;4949184;28;20032;-79
2022/05/27 10:44:24;;;;;;;11.48;2.85;;;;;;;21.24;52.09;101788.06;4949035;28;20038;-78
2022/05/27 10:46:58;;;;;;;12.68;3.03;;;;;;;20.16;50.88;101794.06;4963362;28;20034;-78
2022/05/27 10:49:43;;;;;;;6.68;2.75;;;;;;;19.39;52.10;101798.41;4948459;28;20066;-77
2022/05/27 10:52:23;;;;;;;9.05;2.60;;;;;;;19.51;53.55;101796.88;4961222;28;20035;-78
2022/05/27 10:55:33;;;;;;;9.77;2.42;;;;;;;20.11;53.93;101792.00;4957943;28;20042;-77
2022/05/27 11:04:36;;;;;;;7.20;2.67;;;;;;;21.32;49.19;101786.03;4964430;28;20038;-79
2022/05/27 11:07:04;;;;;;;6.60;1.73;;;;;;;21.55;50.51;101787.47;4958375;28;20090;-77
2022/05/27 11:10:01;;;;;;;6.10;1.98;;;;;;;21.29;47.96;101772.44;4961573;28;20741;-78
2022/05/27 11:16:17;;;;;;;6.60;1.80;;;;;;;20.94;47.95;101781.34;4961851;28;20109;-78
2022/05/27 11:19:13;;;;;;;6.35;1.73;;;;;;;20.96;48.98;101767.97;4884466;29;20043;-78
2022/05/27 11:21:54;;;;;;;4.82;1.70;;;;;;;21.29;47.45;101764.53;4958885;28;20062;-77
2022/05/27 11:24:31;;;;;;;6.30;2.00;;;;;;;21.11;44.45;101765.13;4966107;28;20039;-78
2022/05/27 11:27:22;;;;;;;8.55;1.45;;;;;;;21.03;44.50;101774.06;4965103;28;20049;-77
2022/05/27 11:30:10;;;;;;;7.45;1.30;;;;;;;21.03;44.43;101773.25;4965608;28;20039;-78
2022/05/27 11:33:15;;;;;;;7.78;1.88;;;;;;;21.31;43.19;101778.31;4965975;28;20034;-77
2022/05/27 11:36:18;;;;;;;7.55;1.73;;;;;;;21.48;42.66;101774.28;4967327;28;20047;-77
2022/05/27 11:39:15;;;;;;;6.90;2.33;;;;;;;21.34;42.34;101770.81;4967866;28;20540;-77
2022/05/27 11:41:58;;;;;;;7.13;2.17;;;;;;;21.23;44.61;101787.25;4968033;28;20715;-77
2022/05/27 11:44:59;;;;;;;10.77;2.92;;;;;;;21.10;45.90;101790.69;4967399;28;20027;-77
2022/05/27 11:47:42;;;;;;;14.30;2.47;;;;;;;20.63;46.79;101797.72;4935520;28;20130;-77
2022/05/27 11:50:47;;;;;;;9.38;2.17;;;;;;;20.61;47.79;101799.75;4963126;28;20026;-77
2022/05/27 11:53:25;;;;;;;9.88;2.90;;;;;;;20.78;46.67;101793.09;4947874;28;20043;-77
2022/05/27 11:56:03;;;;;;;8.27;1.70;;;;;;;21.09;46.75;101791.69;4962212;28;20030;-77
2022/05/27 11:58:53;;;;;;;7.78;2.60;;;;;;;21.07;45.04;101788.44;4965062;28;20094;-77
2022/05/27 12:01:38;;;;;;;7.80;1.55;;;;;;;20.93;45.38;101786.84;4962350;28;20030;-77
2022/05/27 12:04:15;;;;;;;11.90;3.00;;;;;;;20.79;46.44;101797.34;4968235;28;20241;-77
2022/05/27 12:07:31;;;;;;;8.88;1.70;;;;;;;20.91;43.74;101794.13;4960614;28;20038;-77
2022/05/27 12:10:19;;;;;;;8.65;2.03;;;;;;;21.10;44.62;101793.34;4938467;28;20632;-77
2022/05/27 12:12:54;;;;;;;9.60;2.25;;;;;;;21.62;44.78;101784.81;4945517;28;20031;-77
2022/05/27 12:15:30;;;;;;;7.47;1.80;;;;;;;21.64;42.91;101782.78;4962153;28;20038;-77
2022/05/27 12:17:57;;;;;;;6.82;1.67;;;;;;;21.63;45.57;101795.16;4968458;28;20026;-77
2022/05/27 12:20:28;;;;;;;6.82;1.60;;;;;;;21.51;43.09;101797.63;4963925;28;20428;-77